createdAt,value
2022-12-23T00:01:23.917Z,5.47
2022-12-23T00:03:50.960Z,5.37
2022-12-23T00:06:20.134Z,6.23
2022-12-23T00:08:47.222Z,6.33
2022-12-23T00:11:18.038Z,6.40
2022-12-23T00:14:03.313Z,6.10
2022-12-23T00:16:30.507Z,7.40
2022-12-23T00:18:57.265Z,5.73
2022-12-23T00:21:24.361Z,5.30
2022-12-23T00:23:52.070Z,6.17
2022-12-23T00:26:24.771Z,5.07
2022-12-23T00:28:52.224Z,5.17
2022-12-23T00:31:19.459Z,4.97
2022-12-23T00:33:48.338Z,4.70
2022-12-23T00:36:21.053Z,5.73
2022-12-23T00:39:07.086Z,4.70
2022-12-23T00:41:53.100Z,5.67
2022-12-23T00:44:20.231Z,4.50
2022-12-23T00:46:46.966Z,5.50
2022-12-23T00:49:33.463Z,5.17
2022-12-23T00:52:00.768Z,6.13
2022-12-23T00:54:28.038Z,5.13
2022-12-23T00:56:55.434Z,4.77
2022-12-23T00:59:22.152Z,4.70
2022-12-23T01:02:08.204Z,4.60
2022-12-23T01:04:53.911Z,4.70
2022-12-23T01:07:21.604Z,4.23
2022-12-23T01:09:48.711Z,4.53
2022-12-23T01:12:15.822Z,4.20
2022-12-23T01:14:42.958Z,4.40
2022-12-23T01:17:09.790Z,4.80
2022-12-23T01:19:37.274Z,4.07
2022-12-23T01:22:04.397Z,3.97
2022-12-23T01:24:32.774Z,3.70
2022-12-23T01:26:59.910Z,4.30
2022-12-23T01:29:26.727Z,4.27
2022-12-23T01:31:53.900Z,4.07
2022-12-23T01:34:20.626Z,3.60
2022-12-23T01:36:47.729Z,3.80
2022-12-23T01:39:14.374Z,3.60
2022-12-23T01:41:59.902Z,3.50
2022-12-23T01:45:00.525Z,4.90
2022-12-23T01:47:29.874Z,3.43
2022-12-23T01:50:15.089Z,3.30
2022-12-23T01:52:50.116Z,3.93
2022-12-23T01:55:22.549Z,3.50
2022-12-23T01:57:50.005Z,3.30
2022-12-23T02:00:36.183Z,3.50
2022-12-23T02:03:22.188Z,3.50
2022-12-23T02:05:49.436Z,3.50
2022-12-23T02:08:36.008Z,3.53
2022-12-23T02:11:03.060Z,3.70
2022-12-23T02:14:03.761Z,3.13
2022-12-23T02:16:34.975Z,3.33
2022-12-23T02:19:17.712Z,3.20
2022-12-23T02:22:25.655Z,2.97
2022-12-23T02:25:18.372Z,2.90
2022-12-23T02:28:12.652Z,3.80
2022-12-23T02:30:39.731Z,3.50
2022-12-23T02:33:06.435Z,2.83
2022-12-23T02:35:54.317Z,2.63
2022-12-23T02:38:39.970Z,5.73
2022-12-23T02:41:36.079Z,3.77
2022-12-23T02:44:13.170Z,3.20
2022-12-23T02:46:50.153Z,3.23
2022-12-23T02:49:17.223Z,3.47
2022-12-23T02:51:50.910Z,3.70
2022-12-23T02:54:25.201Z,3.40
2022-12-23T02:56:54.045Z,4.40
2022-12-23T02:59:23.883Z,3.63
2022-12-23T03:01:52.129Z,3.57
2022-12-23T03:04:18.951Z,3.93
2022-12-23T03:06:51.932Z,5.67
2022-12-23T03:09:52.694Z,5.37
2022-12-23T03:12:46.591Z,4.40
2022-12-23T03:15:34.587Z,6.57
2022-12-23T03:18:27.685Z,4.20
2022-12-23T03:21:03.541Z,3.93
2022-12-23T03:23:35.557Z,3.83
2022-12-23T03:26:02.626Z,4.47
2022-12-23T03:28:56.820Z,4.10
2022-12-23T03:31:29.939Z,4.57
2022-12-23T03:34:14.582Z,3.90
2022-12-23T03:36:47.343Z,3.73
2022-12-23T03:39:18.815Z,3.73
2022-12-23T03:41:52.455Z,3.43
2022-12-23T03:44:28.333Z,3.90
2022-12-23T03:47:04.492Z,3.50
2022-12-23T03:49:38.003Z,3.13
2022-12-23T03:52:12.575Z,2.90
2022-12-23T03:54:50.853Z,3.00
2022-12-23T03:57:19.852Z,2.97
2022-12-23T03:59:51.450Z,5.20
2022-12-23T04:02:36.926Z,2.97
2022-12-23T04:05:06.611Z,6.70
2022-12-23T04:07:45.332Z,2.90
2022-12-23T04:10:13.617Z,2.73
2022-12-23T04:12:40.630Z,3.60
2022-12-23T04:15:12.828Z,4.40
2022-12-23T04:17:40.049Z,2.40
2022-12-23T04:20:07.426Z,2.60
2022-12-23T04:22:34.098Z,4.50
2022-12-23T04:25:01.195Z,3.13
2022-12-23T04:27:28.278Z,2.83
2022-12-23T04:29:54.942Z,2.50
2022-12-23T04:32:21.651Z,2.23
2022-12-23T04:34:48.716Z,2.00
2022-12-23T04:37:15.823Z,2.30
2022-12-23T04:39:42.926Z,2.20
2022-12-23T04:42:10.000Z,2.40
2022-12-23T04:44:37.093Z,1.80
2022-12-23T04:47:04.405Z,2.23
2022-12-23T04:49:31.648Z,1.90
2022-12-23T04:51:58.432Z,1.70
2022-12-23T04:54:25.100Z,1.87
2022-12-23T04:56:51.767Z,1.90
2022-12-23T04:59:19.429Z,2.00
2022-12-23T05:01:46.289Z,2.07
2022-12-23T05:04:13.668Z,2.00
2022-12-23T05:06:40.500Z,2.20
2022-12-23T05:09:07.212Z,2.70
2022-12-23T05:11:38.551Z,2.60
2022-12-23T05:14:10.741Z,2.30
2022-12-23T05:16:37.566Z,2.30
2022-12-23T05:19:04.390Z,3.00
2022-12-23T05:21:31.348Z,2.40
2022-12-23T05:23:58.029Z,2.50
2022-12-23T05:26:24.691Z,2.07
2022-12-23T05:28:51.440Z,2.40
2022-12-23T05:31:18.156Z,2.37
2022-12-23T05:33:44.946Z,2.30
2022-12-23T05:36:12.765Z,2.43
2022-12-23T05:38:39.514Z,2.60
2022-12-23T05:41:06.402Z,2.40
2022-12-23T05:43:33.232Z,2.30
2022-12-23T05:46:00.007Z,2.53
2022-12-23T05:48:26.785Z,2.10
2022-12-23T05:50:53.815Z,3.00
2022-12-23T05:53:21.021Z,3.20
2022-12-23T05:55:48.212Z,2.90
2022-12-23T05:58:15.906Z,2.47
2022-12-23T06:00:42.905Z,2.83
2022-12-23T06:03:09.664Z,2.20
2022-12-23T06:05:38.814Z,2.60
2022-12-23T06:08:05.726Z,2.50
2022-12-23T06:10:32.396Z,2.60
2022-12-23T06:12:59.037Z,2.30
2022-12-23T06:15:25.766Z,2.50
2022-12-23T06:17:52.478Z,2.30
2022-12-23T06:20:20.938Z,2.47
2022-12-23T06:22:48.236Z,2.70
2022-12-23T06:25:15.057Z,2.30
2022-12-23T06:27:41.703Z,1.90
2022-12-23T06:30:09.033Z,2.40
2022-12-23T06:32:38.609Z,2.00
2022-12-23T06:35:06.744Z,2.57
2022-12-23T06:37:33.567Z,2.33
2022-12-23T06:40:00.242Z,2.47
2022-12-23T06:42:27.046Z,2.60
2022-12-23T06:44:53.679Z,2.63
2022-12-23T06:47:20.336Z,2.40
2022-12-23T06:49:47.131Z,2.67
2022-12-23T06:52:13.785Z,2.43
2022-12-23T06:54:40.414Z,2.53
2022-12-23T06:57:07.070Z,2.80
2022-12-23T06:59:33.707Z,2.97
2022-12-23T07:02:00.687Z,2.97
2022-12-23T07:04:27.597Z,2.70
2022-12-23T07:06:54.257Z,3.00
2022-12-23T07:09:20.887Z,3.20
2022-12-23T07:11:47.562Z,3.37
2022-12-23T07:14:14.251Z,2.87
2022-12-23T07:16:40.958Z,3.77
2022-12-23T07:19:08.082Z,3.47
2022-12-23T07:21:36.607Z,3.30
2022-12-23T07:24:03.449Z,3.10
2022-12-23T07:26:30.324Z,3.50
2022-12-23T07:28:57.017Z,3.10
2022-12-23T07:31:23.875Z,3.80
2022-12-23T07:33:50.591Z,4.00
2022-12-23T07:36:17.778Z,4.47
2022-12-23T07:38:44.533Z,4.07
2022-12-23T07:41:11.290Z,4.77
2022-12-23T07:43:38.029Z,4.73
2022-12-23T07:46:09.443Z,4.33
2022-12-23T07:48:36.317Z,4.97
2022-12-23T07:51:03.899Z,4.20
2022-12-23T07:53:31.004Z,4.10
2022-12-23T07:55:57.902Z,4.60
2022-12-23T07:58:25.031Z,4.93
2022-12-23T08:00:58.639Z,4.50
2022-12-23T08:03:25.468Z,4.33
2022-12-23T08:06:06.267Z,5.30
2022-12-23T08:08:33.854Z,5.00
2022-12-23T08:11:06.092Z,5.37
2022-12-23T08:13:34.510Z,5.63
2022-12-23T08:16:02.347Z,4.87
2022-12-23T08:18:34.399Z,4.73
2022-12-23T08:21:06.404Z,4.50
2022-12-23T08:23:33.735Z,4.37
2022-12-23T08:26:05.047Z,3.93
2022-12-23T08:28:32.626Z,3.90
2022-12-23T08:31:14.303Z,4.27
2022-12-23T08:33:42.965Z,3.97
2022-12-23T08:36:16.220Z,3.90
2022-12-23T08:38:48.068Z,4.80
2022-12-23T08:41:17.820Z,4.33
2022-12-23T08:43:45.134Z,4.70
2022-12-23T08:46:12.114Z,4.27
2022-12-23T08:48:42.532Z,4.10
2022-12-23T08:51:14.390Z,5.30
2022-12-23T08:53:41.599Z,4.43
2022-12-23T08:56:17.005Z,4.57
2022-12-23T08:58:46.773Z,4.47
2022-12-23T09:01:16.613Z,4.20
2022-12-23T09:03:44.297Z,4.13
2022-12-23T09:06:13.970Z,4.33
2022-12-23T09:08:41.633Z,4.57
2022-12-23T09:11:19.498Z,3.57
2022-12-23T09:13:46.521Z,3.70
2022-12-23T09:16:14.205Z,3.90
2022-12-23T09:18:41.938Z,3.70
2022-12-23T09:21:12.156Z,3.53
2022-12-23T09:23:38.798Z,3.60
2022-12-23T09:26:06.005Z,3.37
2022-12-23T09:28:32.731Z,3.43
2022-12-23T09:31:07.643Z,3.37
2022-12-23T09:33:34.566Z,3.47
2022-12-23T09:36:01.512Z,4.07
2022-12-23T09:38:28.358Z,3.50
2022-12-23T09:41:03.472Z,3.60
2022-12-23T09:43:49.342Z,3.10
2022-12-23T09:46:22.141Z,2.93
2022-12-23T09:49:11.429Z,3.50
2022-12-23T09:51:38.456Z,3.60
2022-12-23T09:54:19.812Z,3.90
2022-12-23T09:56:52.422Z,3.37
2022-12-23T09:59:42.443Z,4.40
2022-12-23T10:02:12.249Z,4.07
2022-12-23T10:05:30.297Z,3.40
2022-12-23T10:08:11.623Z,4.10
2022-12-23T10:10:58.506Z,4.73
2022-12-23T10:13:35.645Z,6.30
2022-12-23T10:16:25.889Z,9.77
2022-12-23T10:18:58.925Z,17.40
2022-12-23T10:21:46.856Z,17.20
2022-12-23T10:24:25.979Z,8.93
2022-12-23T10:27:06.507Z,6.37
2022-12-23T10:29:34.490Z,5.27
2022-12-23T10:32:19.287Z,4.80
2022-12-23T10:35:18.552Z,4.07
2022-12-23T10:37:55.148Z,4.50
2022-12-23T10:40:45.346Z,3.90
2022-12-23T10:43:35.671Z,3.60
2022-12-23T10:46:17.474Z,3.83
2022-12-23T10:49:08.912Z,4.17
2022-12-23T10:51:55.832Z,3.80
2022-12-23T10:54:34.557Z,3.93
2022-12-23T10:57:02.771Z,3.73
2022-12-23T10:59:33.509Z,3.60
2022-12-23T11:02:12.979Z,3.63
2022-12-23T11:04:47.139Z,3.43
2022-12-23T11:10:32.818Z,3.83
2022-12-23T11:13:00.579Z,3.47
2022-12-23T11:15:34.836Z,3.67
2022-12-23T11:18:04.715Z,3.43
2022-12-23T11:20:32.589Z,3.77
2022-12-23T11:23:02.395Z,3.30
2022-12-23T11:25:33.892Z,4.10
2022-12-23T11:28:05.223Z,4.00
2022-12-23T11:30:36.568Z,3.60
2022-12-23T11:33:03.900Z,3.60
2022-12-23T11:35:33.260Z,3.20
2022-12-23T11:38:01.832Z,3.43
2022-12-23T11:40:30.209Z,3.40
2022-12-23T11:43:02.733Z,3.27
2022-12-23T11:45:36.839Z,3.07
2022-12-23T11:48:05.302Z,3.07
2022-12-23T11:50:33.501Z,3.40
2022-12-23T11:53:23.192Z,3.50
2022-12-23T11:56:16.353Z,3.50
2022-12-23T11:59:10.343Z,3.17
2022-12-23T12:01:39.337Z,3.57
2022-12-23T12:04:16.193Z,3.30
2022-12-23T12:06:47.289Z,2.90
2022-12-23T12:09:18.851Z,3.10
2022-12-23T12:11:49.393Z,4.03
2022-12-23T12:14:27.329Z,2.80
2022-12-23T12:16:57.423Z,3.73
2022-12-23T12:19:41.742Z,3.10
2022-12-23T12:22:20.384Z,3.20
2022-12-23T12:24:53.908Z,3.03
2022-12-23T12:27:30.506Z,3.37
2022-12-23T12:30:17.571Z,3.10
2022-12-23T12:32:56.577Z,3.07
2022-12-23T12:35:37.935Z,3.43
2022-12-23T12:38:33.938Z,3.50
2022-12-23T12:41:09.671Z,3.77
2022-12-23T12:43:52.449Z,4.50
2022-12-23T12:46:36.811Z,4.33
2022-12-23T12:49:20.345Z,3.30
2022-12-23T12:51:58.355Z,3.70
2022-12-23T12:54:39.648Z,3.40
2022-12-23T12:57:11.337Z,3.57
2022-12-23T12:59:40.357Z,3.10
2022-12-23T13:02:25.635Z,3.07
2022-12-23T13:05:53.892Z,3.00
2022-12-23T13:08:58.676Z,3.00
2022-12-23T13:11:43.966Z,2.50
2022-12-23T13:14:19.245Z,2.70
2022-12-23T13:16:54.119Z,2.80
2022-12-23T13:19:52.703Z,2.90
2022-12-23T13:22:28.212Z,2.90
2022-12-23T13:25:19.886Z,2.60
2022-12-23T13:28:17.364Z,2.90
2022-12-23T13:30:56.671Z,2.10
2022-12-23T13:33:40.107Z,2.87
2022-12-23T13:36:31.098Z,2.67
2022-12-23T13:39:00.575Z,2.73
2022-12-23T13:41:32.698Z,2.80
2022-12-23T13:44:01.707Z,3.17
2022-12-23T13:46:43.232Z,2.67
2022-12-23T13:49:32.013Z,3.07
2022-12-23T13:52:19.726Z,3.13
2022-12-23T13:55:04.452Z,3.03
2022-12-23T13:57:48.768Z,2.87
2022-12-23T14:00:18.490Z,2.93
2022-12-23T14:03:02.080Z,3.30
2022-12-23T14:05:32.871Z,3.20
2022-12-23T14:08:05.755Z,2.90
2022-12-23T14:10:33.106Z,3.10
2022-12-23T14:13:08.469Z,2.90
2022-12-23T14:15:49.270Z,3.10
2022-12-23T14:18:37.065Z,3.47
2022-12-23T14:21:19.598Z,2.70
2022-12-23T14:24:05.412Z,2.57
2022-12-23T14:27:07.113Z,3.37
2022-12-23T14:30:06.518Z,4.57
2022-12-23T14:32:48.369Z,3.60
2022-12-23T14:35:47.198Z,4.43
2022-12-23T14:38:16.788Z,3.77
2022-12-23T14:40:43.876Z,3.07
2022-12-23T14:43:23.059Z,3.60
2022-12-23T14:45:53.707Z,3.57
2022-12-23T14:48:42.296Z,4.03
2022-12-23T14:51:08.977Z,3.73
2022-12-23T14:53:37.601Z,4.10
2022-12-23T14:56:14.609Z,4.60
2022-12-23T14:58:54.037Z,3.93
2022-12-23T15:01:43.324Z,4.10
2022-12-23T15:04:26.403Z,3.80
2022-12-23T15:07:00.028Z,3.07
2022-12-23T15:09:30.646Z,3.70
2022-12-23T15:12:06.118Z,3.40
2022-12-23T15:14:38.365Z,3.00
2022-12-23T15:17:26.703Z,3.20
2022-12-23T15:19:54.433Z,3.23
2022-12-23T15:22:30.155Z,5.63
2022-12-23T15:24:59.047Z,4.73
2022-12-23T15:27:28.385Z,3.50
2022-12-23T15:29:56.385Z,4.13
2022-12-23T15:32:24.397Z,3.90
2022-12-23T15:34:52.527Z,5.90
2022-12-23T15:37:25.627Z,4.60
2022-12-23T15:40:03.087Z,5.80
2022-12-23T15:42:35.461Z,4.63
2022-12-23T15:45:23.472Z,5.17
2022-12-23T15:47:51.026Z,4.60
2022-12-23T15:50:18.984Z,4.43
2022-12-23T15:52:48.789Z,4.23
2022-12-23T15:55:27.794Z,4.10
2022-12-23T15:57:55.123Z,4.10
2022-12-23T16:00:27.650Z,4.90
2022-12-23T16:03:02.524Z,4.17
2022-12-23T16:05:32.191Z,3.97
2022-12-23T16:08:28.906Z,4.10
2022-12-23T16:11:19.132Z,6.20
2022-12-23T16:14:00.430Z,5.47
2022-12-23T16:16:43.332Z,4.47
2022-12-23T16:19:39.149Z,4.00
2022-12-23T16:22:29.698Z,4.13
2022-12-23T16:24:56.737Z,4.73
2022-12-23T16:27:40.344Z,7.57
2022-12-23T16:30:16.259Z,6.80
2022-12-23T16:32:51.288Z,5.30
2022-12-23T16:35:40.217Z,3.30
2022-12-23T16:38:23.683Z,2.50
2022-12-23T16:40:52.703Z,2.10
2022-12-23T16:43:20.658Z,2.10
2022-12-23T16:45:51.354Z,1.90
2022-12-23T16:48:39.364Z,1.80
2022-12-23T16:51:20.189Z,1.70
2022-12-23T16:53:51.581Z,1.90
2022-12-23T16:56:20.945Z,2.10
2022-12-23T16:58:47.727Z,2.40
2022-12-23T17:01:20.359Z,2.03
2022-12-23T17:03:47.498Z,2.20
2022-12-23T17:06:16.274Z,2.87
2022-12-23T17:08:43.906Z,2.30
2022-12-23T17:11:18.080Z,2.53
2022-12-23T17:13:45.367Z,3.43
2022-12-23T17:16:20.349Z,2.30
2022-12-23T17:18:51.758Z,2.40
2022-12-23T17:21:30.384Z,2.40
2022-12-23T17:24:20.604Z,2.40
2022-12-23T17:26:47.696Z,2.50
2022-12-23T17:29:14.799Z,2.70
2022-12-23T17:31:42.758Z,2.60
2022-12-23T17:34:15.016Z,2.50
2022-12-23T17:36:49.229Z,2.57
2022-12-23T17:39:17.325Z,2.47
2022-12-23T17:41:44.597Z,2.60
2022-12-23T17:44:16.303Z,2.70
2022-12-23T17:46:43.406Z,3.07
2022-12-23T17:49:10.545Z,2.90
2022-12-23T17:51:40.183Z,3.53
2022-12-23T17:54:07.363Z,2.63
2022-12-23T17:56:34.073Z,3.63
2022-12-23T17:59:01.196Z,3.10
2022-12-23T18:01:29.960Z,3.97
2022-12-23T18:03:57.782Z,3.33
2022-12-23T18:06:25.532Z,3.10
2022-12-23T18:08:52.652Z,3.13
2022-12-23T18:11:21.973Z,3.03
2022-12-23T18:13:50.637Z,3.23
2022-12-23T18:16:17.766Z,4.27
2022-12-23T18:18:46.894Z,3.37
2022-12-23T18:21:16.694Z,4.00
2022-12-23T18:23:43.418Z,4.00
2022-12-23T18:26:15.015Z,3.40
2022-12-23T18:28:42.935Z,3.77
2022-12-23T18:31:16.994Z,3.83
2022-12-23T18:33:44.184Z,3.60
2022-12-23T18:36:21.523Z,4.27
2022-12-23T18:38:48.423Z,3.97
2022-12-23T18:41:15.516Z,4.27
2022-12-23T18:43:42.749Z,4.00
2022-12-23T18:46:09.845Z,4.10
2022-12-23T18:48:36.561Z,4.20
2022-12-23T18:51:03.666Z,4.10
2022-12-23T18:53:30.752Z,4.50
2022-12-23T18:55:57.852Z,4.20
2022-12-23T18:58:24.585Z,3.97
2022-12-23T19:00:56.789Z,4.23
2022-12-23T19:03:28.726Z,3.40
2022-12-23T19:05:56.297Z,3.60
2022-12-23T19:08:27.144Z,3.97
2022-12-23T19:10:55.471Z,3.87
2022-12-23T19:13:22.553Z,3.73
2022-12-23T19:15:49.342Z,4.90
2022-12-23T19:18:18.682Z,3.60
2022-12-23T19:20:46.375Z,4.00
2022-12-23T19:23:13.701Z,3.80
2022-12-23T19:25:41.902Z,5.47
2022-12-23T19:28:09.658Z,4.00
2022-12-23T19:30:37.012Z,4.03
2022-12-23T19:33:04.167Z,4.20
2022-12-23T19:35:31.281Z,3.60
2022-12-23T19:37:58.346Z,4.90
2022-12-23T19:40:25.594Z,4.27
2022-12-23T19:42:52.710Z,3.80
2022-12-23T19:45:19.816Z,3.43
2022-12-23T19:47:46.993Z,3.60
2022-12-23T19:50:14.385Z,3.87
2022-12-23T19:52:41.447Z,3.53
2022-12-23T19:55:10.141Z,3.60
2022-12-23T19:57:36.970Z,4.17
2022-12-23T20:00:04.506Z,4.40
2022-12-23T20:02:31.270Z,4.10
2022-12-23T20:04:58.435Z,4.67
2022-12-23T20:07:25.609Z,3.70
2022-12-23T20:09:53.066Z,3.43
2022-12-23T20:12:19.783Z,4.20
2022-12-23T20:14:46.883Z,3.83
2022-12-23T20:17:13.525Z,4.43
2022-12-23T20:19:45.614Z,3.77
2022-12-23T20:22:13.606Z,4.07
2022-12-23T20:24:40.286Z,3.83
2022-12-23T20:27:11.444Z,4.00
2022-12-23T20:29:39.825Z,4.13
2022-12-23T20:32:06.988Z,3.67
2022-12-23T20:34:39.203Z,3.80
2022-12-23T20:37:07.361Z,4.00
2022-12-23T20:39:34.469Z,4.87
2022-12-23T20:42:01.660Z,4.33
2022-12-23T20:44:36.923Z,3.87
2022-12-23T20:47:06.093Z,3.57
2022-12-23T20:49:33.096Z,5.33
2022-12-23T20:52:00.259Z,4.90
2022-12-23T20:54:32.637Z,4.10
2022-12-23T20:57:00.959Z,4.43
2022-12-23T20:59:28.088Z,4.30
2022-12-23T21:01:55.379Z,3.60
2022-12-23T21:04:22.853Z,3.30
2022-12-23T21:06:50.093Z,3.60
2022-12-23T21:09:17.687Z,3.40
2022-12-23T21:11:46.327Z,3.13
2022-12-23T21:14:14.374Z,3.17
2022-12-23T21:16:41.969Z,3.50
2022-12-23T21:19:09.966Z,2.90
2022-12-23T21:21:37.054Z,2.90
2022-12-23T21:24:04.621Z,3.13
2022-12-23T21:26:33.135Z,3.07
2022-12-23T21:29:01.158Z,2.87
2022-12-23T21:31:29.638Z,3.10
2022-12-23T21:33:57.005Z,2.80
2022-12-23T21:36:25.615Z,3.30
2022-12-23T21:38:52.780Z,3.23
2022-12-23T21:41:22.113Z,3.33
2022-12-23T21:43:49.826Z,3.43
2022-12-23T21:46:18.927Z,3.80
2022-12-23T21:48:47.346Z,3.60
2022-12-23T21:51:22.402Z,3.07
2022-12-23T21:53:51.033Z,3.37
2022-12-23T21:56:20.890Z,3.73
2022-12-23T21:58:48.083Z,3.43
2022-12-23T22:01:19.556Z,3.20
2022-12-23T22:03:48.627Z,3.10
2022-12-23T22:06:17.263Z,3.63
2022-12-23T22:08:44.364Z,3.33
2022-12-23T22:11:31.192Z,3.23
2022-12-23T22:13:58.778Z,4.17
2022-12-23T22:16:26.691Z,3.13
2022-12-23T22:18:54.893Z,3.23
2022-12-23T22:21:23.064Z,3.60
2022-12-23T22:23:51.195Z,4.43
2022-12-23T22:26:25.449Z,3.60
2022-12-23T22:28:57.522Z,3.47
2022-12-23T22:31:24.597Z,3.40
2022-12-23T22:33:51.712Z,3.03
2022-12-23T22:36:18.818Z,4.27
2022-12-23T22:38:55.445Z,4.00
2022-12-23T22:41:23.742Z,4.00
2022-12-23T22:43:50.863Z,3.40
2022-12-23T22:46:18.403Z,4.33
2022-12-23T22:48:45.939Z,3.70
2022-12-23T22:51:16.913Z,3.87
2022-12-23T22:53:44.014Z,3.50
2022-12-23T22:56:12.692Z,4.53
2022-12-23T22:58:39.891Z,3.57
2022-12-23T23:01:07.618Z,4.07
2022-12-23T23:03:34.280Z,5.17
2022-12-23T23:06:09.668Z,3.80
2022-12-23T23:08:36.379Z,2.93
2022-12-23T23:11:04.992Z,3.43
2022-12-23T23:13:33.333Z,4.33
2022-12-23T23:16:01.513Z,4.40
2022-12-23T23:18:29.156Z,3.87
2022-12-23T23:20:56.237Z,4.97
2022-12-23T23:23:23.064Z,3.50
2022-12-23T23:25:50.232Z,4.80
2022-12-23T23:28:17.280Z,3.23
2022-12-23T23:30:44.491Z,3.77
2022-12-23T23:33:11.756Z,3.70
2022-12-23T23:35:39.085Z,3.70
2022-12-23T23:38:06.056Z,3.87
2022-12-23T23:40:33.352Z,4.37
2022-12-23T23:43:00.831Z,3.97
2022-12-23T23:45:27.794Z,4.13
2022-12-23T23:47:55.651Z,4.00
2022-12-23T23:50:22.520Z,3.83
2022-12-23T23:52:49.585Z,3.83
2022-12-23T23:55:16.531Z,4.47
2022-12-23T23:57:43.602Z,4.33
